Time;durP1;ratioP1;P1;durP2;ratioP2;P2;SDS_P1;SDS_P2;PMS_P1;PMS_P2;Temp;Humidity;BMP_temperature;BMP_pressure;BME280_temperature;BME280_humidity;BME280_pressure;Samples;Min_cycle;Max_cycle;Signal;HPM_P1;HPM_P2
2022/11/04 07:47:03;;;;;;;1.52;0.70;;;9.80;99.90;;;;;;6280617;22;20132;-95
2022/11/04 07:50:08;;;;;;;5.13;1.13;;;9.70;99.90;;;;;;6198097;22;20020;-96
2022/11/04 07:53:16;;;;;;;;;;;;;;;;;;;;;
2022/11/04 17:58:32;;;;;;;6.05;1.70;;;9.30;99.90;;;;;;6271029;22;20046;-46
2022/11/04 18:00:58;;;;;;;8.35;1.80;;;9.20;99.90;;;;;;6238830;22;20015;-46
2022/11/04 18:03:24;;;;;;;9.65;2.08;;;9.20;99.90;;;;;;6266696;22;20008;-45
2022/11/04 18:05:57;;;;;;;7.57;1.90;;;9.20;99.90;;;;;;6267159;22;20277;-46
2022/11/04 18:08:23;;;;;;;7.18;1.90;;;9.20;99.90;;;;;;6265950;22;20073;-46
2022/11/04 18:10:49;;;;;;;10.13;2.50;;;9.10;99.90;;;;;;6213078;22;20019;-45
2022/11/04 18:13:15;;;;;;;11.20;2.65;;;9.10;99.90;;;;;;6265749;22;20016;-46
2022/11/04 18:15:41;;;;;;;8.10;2.13;;;9.10;99.90;;;;;;6266045;22;20012;-47
2022/11/04 18:18:06;;;;;;;10.57;1.60;;;9.10;99.90;;;;;;6237791;22;20019;-47
2022/11/04 18:20:34;;;;;;;10.00;1.85;;;9.10;99.90;;;;;;6265918;22;20224;-46
2022/11/04 18:22:59;;;;;;;;;;;9.10;99.90;;;;;;6266961;22;20022;-48
2022/11/04 18:25:25;;;;;;;8.00;1.63;;;9.00;99.90;;;;;;6239914;22;19911;-47
2022/11/04 18:27:51;;;;;;;11.35;2.60;;;9.10;99.90;;;;;;6267054;22;20015;-45
2022/11/04 18:30:17;;;;;;;9.98;2.15;;;9.00;99.90;;;;;;6267988;22;20065;-46
2022/11/04 18:32:43;;;;;;;6.05;2.63;;;9.10;99.90;;;;;;6269719;22;20051;-48
2022/11/04 18:35:09;;;;;;;10.27;2.38;;;9.10;99.90;;;;;;6243487;22;20011;-49
2022/11/04 18:37:35;;;;;;;10.25;3.40;;;9.10;99.90;;;;;;6269363;22;20658;-46
2022/11/04 18:40:00;;;;;;;13.85;3.40;;;9.10;99.90;;;;;;6269862;22;20310;-46
2022/11/04 18:42:26;;;;;;;13.40;3.28;;;9.10;99.90;;;;;;6269773;22;20109;-48
2022/11/04 18:44:53;;;;;;;12.80;2.88;;;9.10;99.90;;;;;;6243079;22;20022;-49
2022/11/04 18:47:20;;;;;;;8.18;2.67;;;9.10;99.90;;;;;;6269645;22;20012;-49
2022/11/04 18:49:46;;;;;;;6.20;2.03;;;9.00;99.90;;;;;;6241565;22;20027;-46
2022/11/04 18:52:12;;;;;;;11.30;2.30;;;9.00;99.90;;;;;;6267951;22;20019;-46
2022/11/04 18:54:38;;;;;;;6.85;1.88;;;9.00;99.90;;;;;;6240166;22;20170;-45
2022/11/04 18:57:04;;;;;;;12.93;1.92;;;9.00;99.90;;;;;;6267648;22;20016;-46
2022/11/04 18:59:31;;;;;;;6.75;2.08;;;8.90;99.90;;;;;;6261729;22;20020;-46
2022/11/04 19:01:56;;;;;;;8.88;2.08;;;8.90;99.90;;;;;;6269276;22;20020;-46
2022/11/04 19:04:22;;;;;;;8.75;2.38;;;8.80;99.90;;;;;;6269353;22;20022;-46
2022/11/04 19:06:48;;;;;;;11.98;2.88;;;8.80;99.90;;;;;;6267683;22;20490;-46
2022/11/04 19:09:15;;;;;;;7.10;2.25;;;8.80;99.90;;;;;;6266911;22;20016;-46
2022/11/04 19:11:41;;;;;;;14.23;2.97;;;8.80;99.90;;;;;;6268339;22;20564;-46
2022/11/04 19:14:10;;;;;;;12.18;2.60;;;8.80;99.90;;;;;;6269363;22;20023;-46
2022/11/04 19:16:37;;;;;;;16.27;2.58;;;8.70;99.90;;;;;;6239485;22;20011;-45
2022/11/04 19:19:06;;;;;;;6.22;2.45;;;8.70;99.90;;;;;;6265452;22;20015;-45
2022/11/04 19:21:33;;;;;;;6.22;2.33;;;8.70;99.90;;;;;;6267724;22;20100;-46
2022/11/04 19:24:00;;;;;;;9.80;2.50;;;8.70;99.90;;;;;;6267765;22;20035;-46
2022/11/04 19:26:29;;;;;;;9.27;2.50;;;8.60;99.90;;;;;;6242430;22;20136;-45
2022/11/04 19:28:55;;;;;;;11.18;2.00;;;8.60;99.90;;;;;;6269988;22;20007;-46
2022/11/04 19:31:23;;;;;;;6.28;1.90;;;8.70;99.90;;;;;;6242957;22;20016;-45
2022/11/04 19:33:50;;;;;;;5.40;2.15;;;8.70;99.90;;;;;;6242524;22;20089;-46
2022/11/04 19:36:18;;;;;;;8.93;2.67;;;8.70;99.90;;;;;;6269320;22;20011;-46
2022/11/04 19:38:44;;;;;;;8.07;2.33;;;8.70;99.90;;;;;;6242495;22;20011;-45
2022/11/04 19:44:02;;;;;;;11.82;3.85;;;8.70;99.90;;;;;;6269270;22;20031;-47
2022/11/04 19:46:28;;;;;;;12.15;3.05;;;8.60;99.90;;;;;;6267673;22;20011;-45
2022/11/04 19:48:57;;;;;;;8.23;2.85;;;8.60;99.90;;;;;;6268586;22;20355;-45
2022/11/04 19:51:23;;;;;;;11.10;2.60;;;8.60;99.90;;;;;;6268608;22;20030;-45
2022/11/04 19:53:49;;;;;;;8.68;2.45;;;8.60;99.90;;;;;;6217337;22;20019;-46
2022/11/04 19:56:16;;;;;;;12.45;2.47;;;8.60;99.90;;;;;;6269704;22;20655;-47
2022/11/04 19:58:43;;;;;;;6.23;2.30;;;8.60;99.90;;;;;;6212121;23;20373;-47
2022/11/04 20:01:09;;;;;;;10.98;2.90;;;8.60;99.90;;;;;;6238340;22;20059;-46
2022/11/04 20:03:36;;;;;;;8.97;2.50;;;8.60;99.90;;;;;;6237475;23;20012;-50
2022/11/04 20:06:02;;;;;;;11.40;2.72;;;8.60;99.90;;;;;;6237221;22;20084;-46
2022/11/04 20:08:28;;;;;;;6.63;1.87;;;8.60;99.90;;;;;;6237964;22;20016;-48
2022/11/04 20:10:55;;;;;;;10.88;2.53;;;8.50;99.90;;;;;;6211555;23;20063;-47
2022/11/04 20:16:15;;;;;;;16.83;2.85;;;8.50;99.90;;;;;;6237246;23;20027;-46
2022/11/04 20:18:41;;;;;;;10.52;1.95;;;8.50;99.90;;;;;;6238488;22;20834;-46
2022/11/04 20:21:07;;;;;;;7.18;3.05;;;8.50;99.90;;;;;;6209643;23;20323;-46
2022/11/04 20:23:33;;;;;;;6.35;2.20;;;8.50;99.90;;;;;;6236338;23;20440;-46
2022/11/04 20:26:09;;;;;;;8.02;1.70;;;8.50;99.90;;;;;;6238200;22;20022;-47
2022/11/04 20:28:36;;;;;;;12.88;2.60;;;8.50;99.90;;;;;;6238035;23;20016;-47
2022/11/04 20:31:11;;;;;;;7.03;2.05;;;8.50;99.90;;;;;;6237908;22;20056;-48
2022/11/04 20:33:37;;;;;;;9.02;1.95;;;8.50;99.90;;;;;;6237982;22;20040;-45
2022/11/04 20:36:05;;;;;;;7.50;1.35;;;8.50;99.90;;;;;;6237367;22;20020;-45
2022/11/04 20:38:31;;;;;;;6.55;1.90;;;8.50;99.90;;;;;;6236010;23;20083;-46
2022/11/04 20:41:05;;;;;;;8.32;2.22;;;8.50;99.90;;;;;;6236443;23;20020;-48
2022/11/04 20:43:33;;;;;;;10.27;2.20;;;8.40;99.90;;;;;;6238134;22;20453;-45
2022/11/04 20:46:08;;;;;;;7.53;2.20;;;8.40;99.90;;;;;;6235195;23;20058;-45
2022/11/04 20:48:35;;;;;;;9.55;1.90;;;8.40;99.90;;;;;;6235760;23;20058;-45
2022/11/04 20:51:22;;;;;;;10.43;2.33;;;8.30;99.90;;;;;;6209999;23;20024;-47
2022/11/04 20:53:54;;;;;;;10.82;2.13;;;8.30;99.90;;;;;;6238005;22;20023;-48
2022/11/04 20:56:22;;;;;;;6.30;2.05;;;8.30;99.90;;;;;;6238161;22;20008;-46
2022/11/04 20:58:47;;;;;;;7.93;2.58;;;8.30;99.90;;;;;;6249482;22;20046;-47
2022/11/04 21:01:18;;;;;;;12.60;2.85;;;8.20;99.90;;;;;;6267657;22;20107;-46
2022/11/04 21:03:44;;;;;;;8.75;2.20;;;8.20;99.90;;;;;;6268919;22;20018;-47
2022/11/04 21:06:11;;;;;;;8.40;2.20;;;8.30;99.90;;;;;;6266225;22;20012;-45
2022/11/04 21:08:37;;;;;;;8.07;2.80;;;8.20;99.90;;;;;;6240751;22;20102;-46
2022/11/04 21:11:04;;;;;;;9.57;2.45;;;8.20;99.90;;;;;;6267480;22;20715;-47
2022/11/04 21:13:32;;;;;;;9.98;2.50;;;8.20;99.90;;;;;;6240280;22;20015;-46
2022/11/04 21:15:59;;;;;;;9.20;2.47;;;8.20;99.90;;;;;;6241678;22;20474;-47
2022/11/04 21:18:25;;;;;;;;;;;8.20;99.90;;;;;;6268658;22;20440;-47
2022/11/04 21:20:52;;;;;;;15.40;2.45;;;8.10;99.90;;;;;;6268234;22;19915;-47
2022/11/04 21:23:19;;;;;;;6.57;1.95;;;8.10;99.90;;;;;;6267578;22;20507;-46
2022/11/04 21:25:56;;;;;;;8.30;2.45;;;8.00;99.90;;;;;;6267525;22;20012;-46
2022/11/04 21:28:26;;;;;;;8.88;2.40;;;8.00;99.90;;;;;;6268493;22;20019;-45
2022/11/04 21:30:53;;;;;;;12.35;2.30;;;7.90;99.90;;;;;;6267045;22;20007;-46
2022/11/04 21:33:20;;;;;;;11.52;3.05;;;7.90;99.90;;;;;;6235256;23;20024;-47
2022/11/04 21:35:49;;;;;;;10.32;2.75;;;7.80;99.90;;;;;;6237020;23;20421;-45
2022/11/04 21:38:17;;;;;;;8.73;2.63;;;7.80;99.90;;;;;;6236644;23;20059;-49
2022/11/04 21:40:43;;;;;;;10.88;3.92;;;7.70;99.90;;;;;;6237701;23;20022;-48
2022/11/04 21:43:10;;;;;;;9.00;4.45;;;7.70;99.90;;;;;;6237199;23;20073;-47
2022/11/04 21:45:36;;;;;;;7.70;3.85;;;7.70;99.90;;;;;;6237040;23;20008;-45
2022/11/04 21:48:03;;;;;;;8.77;3.72;;;7.60;99.90;;;;;;6237402;23;20020;-46
2022/11/04 21:50:29;;;;;;;10.45;3.85;;;7.60;99.90;;;;;;6209986;23;20087;-45
2022/11/04 21:52:56;;;;;;;8.68;3.80;;;7.60;99.90;;;;;;6236839;23;20443;-45
2022/11/04 21:55:22;;;;;;;8.10;3.22;;;7.60;99.90;;;;;;6237265;23;20496;-45
2022/11/04 21:57:48;;;;;;;11.00;3.30;;;7.60;99.90;;;;;;6237027;23;20012;-46
2022/11/04 22:00:14;;;;;;;10.77;4.18;;;7.50;99.90;;;;;;6179421;23;20071;-47
2022/11/04 22:02:41;;;;;;;8.98;3.50;;;7.50;99.90;;;;;;6206963;23;20019;-46
2022/11/04 22:05:11;;;;;;;13.23;4.57;;;7.50;99.90;;;;;;6207776;23;20082;-47
2022/11/04 22:10:25;;;;;;;12.48;4.88;;;7.60;99.90;;;;;;6209028;23;20079;-46
2022/11/04 22:12:51;;;;;;;10.55;3.90;;;7.70;99.90;;;;;;6206877;23;20020;-45
2022/11/04 22:15:56;;;;;;;13.00;3.95;;;7.70;99.90;;;;;;6208495;23;20067;-46
2022/11/04 22:18:04;;;;;;;7.88;3.83;;;7.70;99.90;;;;;;6207919;23;20020;-45
2022/11/04 22:20:30;;;;;;;9.80;3.95;;;7.70;99.90;;;;;;6205245;23;20015;-45
2022/11/04 22:22:56;;;;;;;11.05;4.50;;;7.70;99.90;;;;;;6202817;23;20312;-45
2022/11/04 22:25:23;;;;;;;9.65;4.00;;;7.70;99.90;;;;;;6207315;23;20083;-45
2022/11/04 22:27:48;;;;;;;12.18;4.38;;;7.70;99.90;;;;;;6180957;23;20071;-45
2022/11/04 22:30:14;;;;;;;11.02;4.00;;;7.80;99.90;;;;;;6207730;23;20028;-45
2022/11/04 22:32:40;;;;;;;9.48;3.80;;;7.80;99.90;;;;;;6208627;23;20335;-45
2022/11/04 22:35:06;;;;;;;7.88;3.42;;;7.90;99.90;;;;;;6208740;23;20699;-46
2022/11/04 22:37:32;;;;;;;10.35;3.33;;;7.90;99.90;;;;;;6208722;23;20027;-47
2022/11/04 22:39:58;;;;;;;8.05;3.00;;;8.00;99.90;;;;;;6208598;23;20013;-45
2022/11/04 22:42:24;;;;;;;7.72;2.70;;;8.00;99.90;;;;;;6208401;23;20012;-45
2022/11/04 22:44:50;;;;;;;8.77;2.88;;;8.10;99.90;;;;;;6207092;23;20726;-47
2022/11/04 22:47:16;;;;;;;8.07;2.13;;;8.10;99.90;;;;;;6206845;23;20043;-46
2022/11/04 22:49:41;;;;;;;9.55;2.60;;;8.20;99.90;;;;;;6208091;23;20027;-45
2022/11/04 22:52:07;;;;;;;9.18;2.25;;;8.20;99.90;;;;;;6207921;23;20677;-46
2022/11/04 22:54:33;;;;;;;6.85;1.90;;;8.20;99.90;;;;;;6208061;23;20012;-46
2022/11/04 22:56:59;;;;;;;6.10;1.65;;;8.30;99.90;;;;;;6208287;23;20020;-45
2022/11/04 22:59:25;;;;;;;5.68;1.75;;;8.30;99.90;;;;;;6211073;23;20328;-45
2022/11/04 23:01:52;;;;;;;4.78;1.80;;;8.30;99.90;;;;;;6238121;23;20111;-46
2022/11/04 23:04:17;;;;;;;9.48;2.22;;;8.40;99.90;;;;;;6238709;23;20012;-45
2022/11/04 23:06:43;;;;;;;3.95;1.30;;;8.40;99.90;;;;;;6238364;23;20012;-45
2022/11/04 23:09:11;;;;;;;5.63;1.52;;;8.50;99.90;;;;;;6238673;23;20426;-44
2022/11/04 23:20:14;;;;;;;13.10;2.88;;;8.40;99.90;;;;;;6238159;23;20630;-46
2022/11/04 23:25:25;;;;;;;9.95;2.80;;;8.30;99.90;;;;;;6237969;23;20027;-46
2022/11/04 23:30:41;;;;;;;12.63;3.05;;;8.20;99.90;;;;;;6238008;23;20457;-46
2022/11/04 23:33:12;;;;;;;9.88;3.00;;;8.20;99.90;;;;;;6237576;23;20020;-45
2022/11/04 23:38:32;;;;;;;7.28;2.60;;;8.00;99.90;;;;;;6238695;23;20012;-45
2022/11/04 23:43:46;;;;;;;8.75;2.63;;;7.90;99.90;;;;;;6238141;23;20074;-45
